createdAt,value
2023-01-18T00:00:11.088Z,97883.59
2023-01-18T00:01:11.063Z,97879.61
2023-01-18T00:02:11.153Z,97883.48
2023-01-18T00:03:12.072Z,97877.36
2023-01-18T00:04:11.066Z,97874.97
2023-01-18T00:05:11.114Z,97875.72
2023-01-18T00:06:13.091Z,97876.58
2023-01-18T00:07:11.064Z,97871.70
2023-01-18T00:08:11.069Z,97870.71
2023-01-18T00:09:11.090Z,97872.69
2023-01-18T00:10:11.065Z,97874.28
2023-01-18T00:11:14.069Z,97876.05
2023-01-18T00:12:11.066Z,97874.60
2023-01-18T00:13:11.064Z,97871.76
2023-01-18T00:14:11.059Z,97873.18
2023-01-18T00:15:11.083Z,97868.41
2023-01-18T00:16:12.106Z,97875.56
2023-01-18T00:17:11.060Z,97876.17
2023-01-18T00:18:11.070Z,97874.29
2023-01-18T00:19:15.066Z,97872.91
2023-01-18T00:20:11.062Z,97874.83
2023-01-18T00:21:11.065Z,97879.33
2023-01-18T00:22:11.067Z,97881.95
2023-01-18T00:23:11.070Z,97879.21
2023-01-18T00:24:14.066Z,97877.35
2023-01-18T00:25:11.071Z,97873.49
2023-01-18T00:26:11.072Z,97874.34
2023-01-18T00:27:12.064Z,97874.52
2023-01-18T00:28:11.065Z,97873.48
2023-01-18T00:29:11.063Z,97870.42
2023-01-18T00:30:11.069Z,97869.75
2023-01-18T00:31:15.145Z,97864.75
2023-01-18T00:32:11.071Z,97864.57
2023-01-18T00:33:11.064Z,97867.31
2023-01-18T00:34:11.065Z,97865.73
2023-01-18T00:35:11.061Z,97863.98
2023-01-18T00:36:11.067Z,97858.87
2023-01-18T00:37:11.073Z,97859.00
2023-01-18T00:38:11.066Z,97858.86
2023-01-18T00:39:11.071Z,97857.68
2023-01-18T00:40:11.066Z,97860.00
2023-01-18T00:41:11.102Z,97860.48
2023-01-18T00:42:15.076Z,97863.07
2023-01-18T00:43:15.065Z,97865.06
2023-01-18T00:44:11.066Z,97863.94
2023-01-18T00:45:11.063Z,97867.35
2023-01-18T00:46:11.127Z,97870.38
2023-01-18T00:47:11.064Z,97868.07
2023-01-18T00:48:11.073Z,97867.80
2023-01-18T00:49:11.073Z,97867.88
2023-01-18T00:50:11.069Z,97868.43
2023-01-18T00:51:11.069Z,97864.10
2023-01-18T00:52:11.070Z,97870.29
2023-01-18T00:53:11.080Z,97869.23
2023-01-18T00:54:11.079Z,97870.79
2023-01-18T00:55:11.072Z,97869.99
2023-01-18T00:56:11.084Z,97868.88
2023-01-18T00:57:11.071Z,97870.88
2023-01-18T00:58:11.064Z,97872.85
2023-01-18T00:59:11.064Z,97875.77
2023-01-18T01:00:11.063Z,97878.29
2023-01-18T01:01:11.196Z,97876.41
2023-01-18T01:02:11.258Z,97874.10
2023-01-18T01:03:11.063Z,97873.03
2023-01-18T01:04:15.067Z,97869.68
2023-01-18T01:05:20.063Z,97866.84
2023-01-18T01:06:16.068Z,97867.50
2023-01-18T01:07:11.067Z,97869.56
2023-01-18T01:08:11.065Z,97867.57
2023-01-18T01:09:14.071Z,97870.75
2023-01-18T01:10:13.061Z,97869.51
2023-01-18T01:11:14.062Z,97864.68
2023-01-18T01:12:15.061Z,97862.43
2023-01-18T01:13:15.065Z,97862.38
2023-01-18T01:14:15.059Z,97862.71
2023-01-18T01:15:15.057Z,97857.60
2023-01-18T01:16:15.075Z,97856.69
2023-01-18T01:17:15.068Z,97853.52
2023-01-18T01:18:15.063Z,97855.46
2023-01-18T01:19:15.061Z,97857.30
2023-01-18T01:20:15.060Z,97858.87
2023-01-18T01:21:15.076Z,97856.95
2023-01-18T01:22:15.061Z,97856.65
2023-01-18T01:23:17.059Z,97859.25
2023-01-18T01:24:15.063Z,97858.62
2023-01-18T01:25:15.073Z,97859.15
2023-01-18T01:26:11.125Z,97855.17
2023-01-18T01:27:11.064Z,97859.40
2023-01-18T01:28:11.065Z,97859.85
2023-01-18T01:29:11.065Z,97862.90
2023-01-18T01:30:11.063Z,97860.00
2023-01-18T01:31:11.089Z,97862.80
2023-01-18T01:32:11.073Z,97860.00
2023-01-18T01:33:11.061Z,97861.94
2023-01-18T01:34:11.065Z,97862.65
2023-01-18T01:35:11.081Z,97865.93
2023-01-18T01:36:15.071Z,97867.07
2023-01-18T01:37:11.065Z,97868.50
2023-01-18T01:38:11.060Z,97869.04
2023-01-18T01:39:11.094Z,97867.99
2023-01-18T01:40:11.060Z,97868.63
2023-01-18T01:41:14.064Z,97870.15
2023-01-18T01:42:13.065Z,97869.41
2023-01-18T01:43:14.063Z,97869.42
2023-01-18T01:44:19.068Z,97868.62
2023-01-18T01:45:11.060Z,97865.72
2023-01-18T01:46:21.064Z,97862.29
2023-01-18T01:47:17.070Z,97861.32
2023-01-18T01:48:11.069Z,97863.57
2023-01-18T01:49:21.071Z,97865.88
2023-01-18T01:50:17.061Z,97864.11
2023-01-18T01:51:11.070Z,97864.04
2023-01-18T01:52:11.062Z,97863.97
2023-01-18T01:53:11.063Z,97864.23
2023-01-18T01:54:17.068Z,97863.34
2023-01-18T01:55:19.061Z,97868.49
2023-01-18T01:56:11.067Z,97862.80
2023-01-18T01:57:18.068Z,97865.24
2023-01-18T01:58:13.092Z,97865.44
2023-01-18T01:59:11.061Z,97862.52
2023-01-18T02:00:16.065Z,97863.54
2023-01-18T02:01:11.127Z,97860.25
2023-01-18T02:02:11.246Z,97861.13
2023-01-18T02:03:11.061Z,97861.04
2023-01-18T02:04:11.062Z,97855.68
2023-01-18T02:05:12.064Z,97860.46
2023-01-18T02:06:19.071Z,97859.77
2023-01-18T02:07:12.064Z,97862.72
2023-01-18T02:08:15.062Z,97864.67
2023-01-18T02:09:12.063Z,97865.18
2023-01-18T02:10:11.071Z,97866.10
2023-01-18T02:11:11.059Z,97869.20
2023-01-18T02:12:11.063Z,97866.66
2023-01-18T02:13:11.073Z,97867.88
2023-01-18T02:14:13.061Z,97872.32
2023-01-18T02:15:11.067Z,97876.75
2023-01-18T02:16:21.093Z,97881.89
2023-01-18T02:17:21.061Z,97884.79
2023-01-18T02:18:18.069Z,97876.83
2023-01-18T02:19:19.066Z,97877.36
2023-01-18T02:20:19.067Z,97877.35
2023-01-18T02:21:19.063Z,97876.91
2023-01-18T02:22:22.062Z,97881.90
2023-01-18T02:23:19.062Z,97880.28
2023-01-18T02:24:19.071Z,97884.00
2023-01-18T02:25:19.068Z,97882.76
2023-01-18T02:26:21.060Z,97883.56
2023-01-18T02:27:19.060Z,97883.75
2023-01-18T02:28:15.062Z,97879.61
2023-01-18T02:29:21.065Z,97874.95
2023-01-18T02:30:20.061Z,97876.03
2023-01-18T02:31:19.075Z,97877.95
2023-01-18T02:32:22.066Z,97881.94
2023-01-18T02:33:19.066Z,97884.10
2023-01-18T02:34:19.065Z,97889.32
2023-01-18T02:35:19.064Z,97890.64
2023-01-18T02:36:11.064Z,97891.45
2023-01-18T02:37:23.067Z,97893.44
2023-01-18T02:38:17.071Z,97892.05
2023-01-18T02:39:21.071Z,97895.62
2023-01-18T02:40:21.060Z,97898.21
2023-01-18T02:41:19.068Z,97895.92
2023-01-18T02:42:19.067Z,97895.88
2023-01-18T02:43:16.074Z,97897.28
2023-01-18T02:44:17.064Z,97898.89
2023-01-18T02:45:23.062Z,97902.96
2023-01-18T02:46:15.118Z,97902.48
2023-01-18T02:47:11.065Z,97905.94
2023-01-18T02:48:11.068Z,97899.82
2023-01-18T02:49:19.065Z,97903.29
2023-01-18T02:50:11.064Z,97905.73
2023-01-18T02:51:11.068Z,97907.62
2023-01-18T02:52:15.065Z,97900.06
2023-01-18T02:53:14.063Z,97899.45
2023-01-18T02:54:11.070Z,97901.49
2023-01-18T02:55:21.064Z,97901.79
2023-01-18T02:56:17.083Z,97902.57
2023-01-18T02:57:13.065Z,97905.66
2023-01-18T02:58:19.064Z,97904.70
2023-01-18T02:59:21.069Z,97903.57
2023-01-18T03:00:11.062Z,97906.21
2023-01-18T03:01:23.210Z,97907.89
2023-01-18T03:02:16.113Z,97904.82
2023-01-18T03:03:11.066Z,97905.14
2023-01-18T03:04:20.063Z,97901.96
2023-01-18T03:05:11.074Z,97902.16
2023-01-18T03:06:11.064Z,97902.72
2023-01-18T03:07:16.067Z,97902.79
2023-01-18T03:08:18.091Z,97905.01
2023-01-18T03:09:11.064Z,97906.73
2023-01-18T03:10:11.069Z,97906.14
2023-01-18T03:11:19.073Z,97908.88
2023-01-18T03:12:19.065Z,97911.73
2023-01-18T03:13:15.068Z,97907.50
2023-01-18T03:14:19.069Z,97907.78
2023-01-18T03:15:18.088Z,97906.61
2023-01-18T03:16:20.063Z,97907.14
2023-01-18T03:17:22.065Z,97903.48
2023-01-18T03:18:19.063Z,97906.30
2023-01-18T03:19:19.064Z,97906.89
2023-01-18T03:20:14.073Z,97905.72
2023-01-18T03:21:11.066Z,97906.63
2023-01-18T03:22:11.062Z,97907.12
2023-01-18T03:23:23.078Z,97906.45
2023-01-18T03:24:11.066Z,97904.72
2023-01-18T03:25:11.071Z,97901.65
2023-01-18T03:26:11.066Z,97901.37
2023-01-18T03:27:15.065Z,97900.45
2023-01-18T03:28:23.059Z,97901.74
2023-01-18T03:29:15.065Z,97903.74
2023-01-18T03:30:15.067Z,97902.77
2023-01-18T03:31:16.141Z,97903.18
2023-01-18T03:32:16.073Z,97904.14
2023-01-18T03:33:15.071Z,97908.56
2023-01-18T03:34:19.073Z,97905.80
2023-01-18T03:35:16.065Z,97905.00
2023-01-18T03:36:16.076Z,97904.13
2023-01-18T03:37:16.064Z,97905.81
2023-01-18T03:38:11.076Z,97903.12
2023-01-18T03:39:21.065Z,97898.45
2023-01-18T03:40:13.060Z,97899.74
2023-01-18T03:41:11.067Z,97901.93
2023-01-18T03:42:19.067Z,97903.23
2023-01-18T03:43:18.067Z,97905.54
2023-01-18T03:44:19.066Z,97903.88
2023-01-18T03:45:21.072Z,97902.96
2023-01-18T03:46:11.098Z,97903.57
2023-01-18T03:47:11.082Z,97903.91
2023-01-18T03:48:11.073Z,97903.41
2023-01-18T03:49:11.074Z,97903.91
2023-01-18T03:50:11.065Z,97908.47
2023-01-18T03:51:19.071Z,97910.25
2023-01-18T03:52:19.070Z,97910.46
2023-01-18T03:53:16.062Z,97908.64
2023-01-18T03:54:19.067Z,97906.40
2023-01-18T03:55:16.068Z,97907.04
2023-01-18T03:56:18.068Z,97902.91
2023-01-18T03:57:19.064Z,97903.06
2023-01-18T03:58:11.070Z,97900.00
2023-01-18T03:59:11.067Z,97900.62
2023-01-18T04:00:13.066Z,97904.34
2023-01-18T04:01:11.205Z,97903.36
2023-01-18T04:02:11.063Z,97902.56
2023-01-18T04:03:11.107Z,97905.63
2023-01-18T04:04:11.057Z,97905.07
2023-01-18T04:05:11.071Z,97904.54
2023-01-18T04:06:11.059Z,97900.29
2023-01-18T04:07:11.062Z,97895.55
2023-01-18T04:08:11.068Z,97890.55
2023-01-18T04:09:11.058Z,97896.34
2023-01-18T04:10:11.058Z,97891.98
2023-01-18T04:11:11.073Z,97896.30
2023-01-18T04:12:11.059Z,97895.17
2023-01-18T04:13:11.058Z,97897.75
2023-01-18T04:14:11.067Z,97896.64
2023-01-18T04:15:11.060Z,97899.28
2023-01-18T04:16:11.135Z,97899.65
2023-01-18T04:17:11.061Z,97898.52
2023-01-18T04:18:11.095Z,97897.19
2023-01-18T04:19:11.085Z,97895.35
2023-01-18T04:20:11.067Z,97895.28
2023-01-18T04:21:11.068Z,97895.23
2023-01-18T04:22:11.060Z,97900.05
2023-01-18T04:23:11.062Z,97899.97
2023-01-18T04:24:11.063Z,97904.97
2023-01-18T04:25:11.069Z,97901.71
2023-01-18T04:26:11.077Z,97898.62
2023-01-18T04:27:11.073Z,97901.42
2023-01-18T04:28:11.074Z,97900.45
2023-01-18T04:29:11.081Z,97903.32
2023-01-18T04:30:11.057Z,97902.00
2023-01-18T04:31:11.115Z,97897.97
2023-01-18T04:32:11.065Z,97897.55
2023-01-18T04:33:11.065Z,97901.48
2023-01-18T04:34:11.068Z,97901.33
2023-01-18T04:35:11.067Z,97898.96
2023-01-18T04:36:11.074Z,97901.17
2023-01-18T04:37:11.074Z,97902.37
2023-01-18T04:38:11.069Z,97899.49
2023-01-18T04:39:12.061Z,97904.76
2023-01-18T04:40:11.070Z,97906.54
2023-01-18T04:41:11.069Z,97904.05
2023-01-18T04:42:11.060Z,97905.08
2023-01-18T04:43:11.088Z,97907.12
2023-01-18T04:44:11.067Z,97908.58
2023-01-18T04:45:11.062Z,97910.45
2023-01-18T04:46:11.199Z,97907.53
2023-01-18T04:47:11.061Z,97909.62
2023-01-18T04:48:11.063Z,97911.47
2023-01-18T04:49:13.062Z,97912.35
2023-01-18T04:50:11.061Z,97917.11
2023-01-18T04:51:16.061Z,97912.44
2023-01-18T04:52:11.069Z,97917.81
2023-01-18T04:53:11.059Z,97913.58
2023-01-18T04:54:11.063Z,97915.21
2023-01-18T04:55:11.066Z,97918.27
2023-01-18T04:56:11.061Z,97919.77
2023-01-18T04:57:11.061Z,97923.48
2023-01-18T04:58:11.074Z,97922.47
2023-01-18T04:59:16.102Z,97921.00
2023-01-18T05:00:11.064Z,97920.08
2023-01-18T05:01:11.192Z,97924.32
2023-01-18T05:02:11.084Z,97925.57
2023-01-18T05:03:11.072Z,97923.64
2023-01-18T05:04:11.061Z,97925.66
2023-01-18T05:05:11.064Z,97926.15
2023-01-18T05:06:11.070Z,97929.86
2023-01-18T05:07:11.063Z,97928.17
2023-01-18T05:08:11.075Z,97931.84
2023-01-18T05:09:12.077Z,97928.62
2023-01-18T05:10:11.062Z,97930.50
2023-01-18T05:11:11.075Z,97931.00
2023-01-18T05:12:11.071Z,97932.94
2023-01-18T05:13:11.059Z,97933.51
2023-01-18T05:14:11.069Z,97936.79
2023-01-18T05:15:11.074Z,97940.01
2023-01-18T05:16:14.089Z,97939.58
2023-01-18T05:17:11.062Z,97940.00
2023-01-18T05:18:11.069Z,97940.63
2023-01-18T05:19:11.070Z,97942.51
2023-01-18T05:20:12.068Z,97939.78
2023-01-18T05:21:11.076Z,97941.35
2023-01-18T05:22:11.060Z,97944.20
2023-01-18T05:23:14.062Z,97945.39
2023-01-18T05:24:11.071Z,97944.49
2023-01-18T05:25:11.061Z,97948.91
2023-01-18T05:26:19.068Z,97948.45
2023-01-18T05:27:11.065Z,97948.64
2023-01-18T05:28:11.063Z,97955.61
2023-01-18T05:29:11.059Z,97953.91
2023-01-18T05:30:11.073Z,97954.02
2023-01-18T05:31:11.125Z,97956.14
2023-01-18T05:32:11.060Z,97955.77
2023-01-18T05:33:11.065Z,97957.66
2023-01-18T05:34:11.067Z,97955.07
2023-01-18T05:35:11.069Z,97957.68
2023-01-18T05:36:11.082Z,97963.24
2023-01-18T05:37:11.071Z,97958.04
2023-01-18T05:38:11.068Z,97958.23
2023-01-18T05:39:11.063Z,97957.59
2023-01-18T05:40:11.087Z,97957.37
2023-01-18T05:41:11.081Z,97961.54
2023-01-18T05:42:11.071Z,97960.69
2023-01-18T05:43:11.062Z,97962.04
2023-01-18T05:44:11.066Z,97965.01
2023-01-18T05:45:11.070Z,97964.11
2023-01-18T05:46:11.107Z,97965.95
2023-01-18T05:47:11.062Z,97965.21
2023-01-18T05:48:11.083Z,97965.96
2023-01-18T05:49:11.061Z,97965.02
2023-01-18T05:50:11.063Z,97964.01
2023-01-18T05:51:11.080Z,97963.48
2023-01-18T05:52:12.065Z,97966.41
2023-01-18T05:53:11.062Z,97967.00
2023-01-18T05:54:11.066Z,97965.44
2023-01-18T05:55:11.067Z,97969.27
2023-01-18T05:56:11.086Z,97968.84
2023-01-18T05:57:11.094Z,97968.84
2023-01-18T05:58:11.066Z,97971.27
2023-01-18T05:59:11.071Z,97971.69
2023-01-18T06:00:11.064Z,97975.20
2023-01-18T06:01:11.102Z,97974.44
2023-01-18T06:02:11.097Z,97974.94
2023-01-18T06:03:11.067Z,97983.49
2023-01-18T06:04:11.137Z,97982.52
2023-01-18T06:05:11.072Z,97982.82
2023-01-18T06:06:11.071Z,97982.62
2023-01-18T06:07:11.068Z,97986.68
2023-01-18T06:08:11.070Z,97987.32
2023-01-18T06:09:11.064Z,97988.98
2023-01-18T06:10:11.063Z,97986.84
2023-01-18T06:11:11.066Z,97987.77
2023-01-18T06:12:11.061Z,97989.12
2023-01-18T06:13:11.083Z,97990.96
2023-01-18T06:14:11.067Z,97991.38
2023-01-18T06:15:11.064Z,97994.39
2023-01-18T06:16:11.105Z,97990.18
2023-01-18T06:17:12.064Z,97990.05
2023-01-18T06:18:11.063Z,97989.82
2023-01-18T06:19:11.065Z,97991.72
2023-01-18T06:20:11.066Z,97990.96
2023-01-18T06:21:11.082Z,97997.36
2023-01-18T06:22:11.067Z,97992.48
2023-01-18T06:23:11.068Z,97994.55
2023-01-18T06:24:11.077Z,97990.68
2023-01-18T06:25:11.076Z,97992.74
2023-01-18T06:26:11.063Z,97987.30
2023-01-18T06:27:11.061Z,97989.14
2023-01-18T06:28:11.072Z,97992.96
2023-01-18T06:29:11.063Z,97995.23
2023-01-18T06:30:11.136Z,97995.60
2023-01-18T06:31:12.066Z,97999.37
2023-01-18T06:32:11.064Z,98001.79
2023-01-18T06:33:11.067Z,97999.26
2023-01-18T06:34:13.068Z,98005.56
2023-01-18T06:35:11.063Z,98005.18
2023-01-18T06:36:11.064Z,98004.64
2023-01-18T06:37:11.068Z,98005.50
2023-01-18T06:38:11.065Z,98007.12
2023-01-18T06:39:11.074Z,98005.31
2023-01-18T06:40:11.068Z,98009.82
2023-01-18T06:41:11.069Z,98006.66
2023-01-18T06:42:11.071Z,98010.04
2023-01-18T06:43:12.067Z,98009.87
2023-01-18T06:44:11.062Z,98010.08
2023-01-18T06:45:11.076Z,98006.27
2023-01-18T06:46:12.135Z,98006.80
2023-01-18T06:47:11.068Z,98003.57
2023-01-18T06:48:11.073Z,98008.45
2023-01-18T06:49:11.062Z,98006.30
2023-01-18T06:50:11.066Z,98009.07
2023-01-18T06:51:11.073Z,98015.95
2023-01-18T06:52:11.060Z,98017.94
2023-01-18T06:53:11.071Z,98018.62
2023-01-18T06:54:11.074Z,98018.64
2023-01-18T06:55:11.096Z,98023.30
2023-01-18T06:56:14.067Z,98023.89
2023-01-18T06:57:11.068Z,98027.64
2023-01-18T06:58:11.062Z,98030.40
2023-01-18T06:59:11.065Z,98035.45
2023-01-18T07:00:11.063Z,98037.85
2023-01-18T07:01:11.179Z,98041.61
2023-01-18T07:02:12.114Z,98044.03
2023-01-18T07:03:12.065Z,98046.29
2023-01-18T07:04:11.120Z,98049.03
2023-01-18T07:05:11.067Z,98052.33
2023-01-18T07:06:11.072Z,98051.63
2023-01-18T07:07:11.077Z,98057.50
2023-01-18T07:08:11.067Z,98056.64
2023-01-18T07:09:11.067Z,98058.46
2023-01-18T07:10:11.063Z,98063.58
2023-01-18T07:11:11.065Z,98061.43
2023-01-18T07:12:11.062Z,98066.02
2023-01-18T07:13:11.061Z,98070.26
2023-01-18T07:14:11.064Z,98072.26
2023-01-18T07:15:21.176Z,98077.14
2023-01-18T07:16:13.557Z,98073.52
2023-01-18T07:17:11.061Z,98075.52
2023-01-18T07:18:11.064Z,98074.98
2023-01-18T07:19:11.059Z,98077.05
2023-01-18T07:20:11.063Z,98074.10
2023-01-18T07:21:15.080Z,98074.16
2023-01-18T07:22:11.062Z,98079.38
2023-01-18T07:23:11.060Z,98075.51
2023-01-18T07:24:11.063Z,98072.78
2023-01-18T07:25:11.066Z,98070.13
2023-01-18T07:26:14.062Z,98071.75
2023-01-18T07:27:11.073Z,98076.85
2023-01-18T07:28:11.059Z,98072.95
2023-01-18T07:29:11.064Z,98079.15
2023-01-18T07:30:11.068Z,98080.04
2023-01-18T07:31:11.063Z,98080.09
2023-01-18T07:32:11.134Z,98080.57
2023-01-18T07:33:11.062Z,98082.57
2023-01-18T07:34:11.060Z,98082.93
2023-01-18T07:35:11.068Z,98086.95
2023-01-18T07:36:15.065Z,98094.30
2023-01-18T07:37:11.110Z,98089.96
2023-01-18T07:38:11.075Z,98093.21
2023-01-18T07:39:11.093Z,98092.91
2023-01-18T07:40:11.063Z,98097.54
2023-01-18T07:41:12.074Z,98100.95
2023-01-18T07:42:11.087Z,98103.54
2023-01-18T07:43:11.060Z,98100.71
2023-01-18T07:44:11.066Z,98102.49
2023-01-18T07:45:12.243Z,98096.37
2023-01-18T07:46:15.087Z,98098.29
2023-01-18T07:47:11.068Z,98102.27
2023-01-18T07:48:11.063Z,98102.65
2023-01-18T07:49:11.071Z,98102.74
2023-01-18T07:50:11.081Z,98100.48
2023-01-18T07:51:11.071Z,98103.78
2023-01-18T07:52:11.059Z,98105.82
2023-01-18T07:53:12.076Z,98113.89
2023-01-18T07:54:11.063Z,98111.98
2023-01-18T07:55:11.063Z,98114.70
2023-01-18T07:56:13.070Z,98117.27
2023-01-18T07:57:11.070Z,98119.10
2023-01-18T07:58:11.065Z,98120.05
2023-01-18T07:59:11.071Z,98125.46
2023-01-18T08:00:12.110Z,98124.56
2023-01-18T08:01:17.197Z,98123.21
2023-01-18T08:02:11.189Z,98123.63
2023-01-18T08:03:14.093Z,98123.47
2023-01-18T08:04:11.063Z,98126.41
2023-01-18T08:05:11.066Z,98124.96
2023-01-18T08:06:11.062Z,98129.93
2023-01-18T08:07:11.058Z,98129.87
2023-01-18T08:08:13.072Z,98134.31
2023-01-18T08:09:11.066Z,98135.13
2023-01-18T08:10:11.059Z,98132.24
2023-01-18T08:11:11.065Z,98129.36
2023-01-18T08:12:11.067Z,98128.47
2023-01-18T08:13:11.074Z,98132.46
2023-01-18T08:14:11.073Z,98133.56
2023-01-18T08:15:11.062Z,98133.57
2023-01-18T08:16:11.207Z,98135.56
2023-01-18T08:17:11.077Z,98133.03
2023-01-18T08:18:11.061Z,98139.86
2023-01-18T08:19:11.062Z,98137.71
2023-01-18T08:20:11.068Z,98143.23
2023-01-18T08:21:11.076Z,98141.05
2023-01-18T08:22:11.064Z,98139.76
2023-01-18T08:23:11.064Z,98140.14
2023-01-18T08:24:11.062Z,98140.61
2023-01-18T08:25:11.063Z,98144.19
2023-01-18T08:26:11.065Z,98145.33
2023-01-18T08:27:11.062Z,98143.55
2023-01-18T08:28:11.066Z,98146.75
2023-01-18T08:29:11.071Z,98148.63
2023-01-18T08:30:11.071Z,98145.32
2023-01-18T08:31:19.230Z,98147.29
2023-01-18T08:32:11.067Z,98150.57
2023-01-18T08:33:11.061Z,98150.18
2023-01-18T08:34:11.064Z,98149.12
2023-01-18T08:35:11.072Z,98152.09
2023-01-18T08:36:15.066Z,98149.97
2023-01-18T08:37:11.064Z,98152.80
2023-01-18T08:38:11.117Z,98153.39
2023-01-18T08:39:11.071Z,98157.31
2023-01-18T08:40:11.062Z,98154.91
2023-01-18T08:41:11.071Z,98155.71
2023-01-18T08:42:12.066Z,98160.22
2023-01-18T08:43:11.074Z,98163.61
2023-01-18T08:44:11.066Z,98172.17
2023-01-18T08:45:11.063Z,98171.57
2023-01-18T08:46:11.186Z,98168.93
2023-01-18T08:47:11.063Z,98172.25
2023-01-18T08:48:12.070Z,98169.95
2023-01-18T08:49:11.068Z,98169.82
2023-01-18T08:50:11.075Z,98170.52
2023-01-18T08:51:11.060Z,98169.41
2023-01-18T08:52:11.100Z,98172.65
2023-01-18T08:53:11.065Z,98170.72
2023-01-18T08:54:11.060Z,98179.10
2023-01-18T08:55:11.067Z,98179.80
2023-01-18T08:56:12.065Z,98188.25
2023-01-18T08:57:11.060Z,98188.40
2023-01-18T08:58:11.071Z,98186.95
2023-01-18T08:59:11.102Z,98190.92
2023-01-18T09:00:11.065Z,98190.34
2023-01-18T09:01:11.125Z,98189.94
2023-01-18T09:02:11.080Z,98188.60
2023-01-18T09:03:11.125Z,98194.18
2023-01-18T09:04:11.071Z,98198.04
2023-01-18T09:05:11.067Z,98201.43
2023-01-18T09:06:12.974Z,98198.34
2023-01-18T09:07:11.066Z,98199.95
2023-01-18T09:08:11.065Z,98199.05
2023-01-18T09:09:11.064Z,98204.46
2023-01-18T09:10:11.069Z,98203.25
2023-01-18T09:11:11.069Z,98202.05
2023-01-18T09:12:11.064Z,98208.70
2023-01-18T09:13:11.097Z,98208.79
2023-01-18T09:14:11.067Z,98209.77
2023-01-18T09:15:11.070Z,98207.25
2023-01-18T09:16:11.135Z,98211.98
2023-01-18T09:17:11.062Z,98212.82
2023-01-18T09:18:11.064Z,98217.13
2023-01-18T09:19:11.068Z,98214.66
2023-01-18T09:20:13.064Z,98216.87
2023-01-18T09:21:11.064Z,98213.99
2023-01-18T09:22:11.065Z,98217.62
2023-01-18T09:23:11.070Z,98222.49
2023-01-18T09:24:11.075Z,98219.24
2023-01-18T09:25:11.065Z,98223.04
2023-01-18T09:26:11.065Z,98225.09
2023-01-18T09:27:11.066Z,98224.86
2023-01-18T09:28:11.067Z,98227.24
2023-01-18T09:29:11.065Z,98227.36
2023-01-18T09:30:11.067Z,98227.73
2023-01-18T09:31:11.103Z,98230.13
2023-01-18T09:32:12.065Z,98233.73
2023-01-18T09:33:11.066Z,98239.40
2023-01-18T09:34:19.262Z,98243.36
2023-01-18T09:35:13.264Z,98243.55
2023-01-18T09:36:11.067Z,98248.24
2023-01-18T09:37:11.073Z,98249.56
2023-01-18T09:38:11.064Z,98252.81
2023-01-18T09:39:11.071Z,98251.72
2023-01-18T09:40:18.066Z,98255.79
2023-01-18T09:41:19.094Z,98252.67
2023-01-18T09:42:18.065Z,98250.30
2023-01-18T09:43:16.089Z,98256.24
2023-01-18T09:44:19.068Z,98252.61
2023-01-18T09:45:19.065Z,98254.69
2023-01-18T09:46:18.080Z,98261.17
2023-01-18T09:47:19.091Z,98258.80
2023-01-18T09:48:18.072Z,98258.76
2023-01-18T09:49:19.069Z,98262.58
2023-01-18T09:50:15.066Z,98260.56
2023-01-18T09:51:19.114Z,98261.97
2023-01-18T09:52:19.068Z,98260.16
2023-01-18T09:53:19.076Z,98266.08
2023-01-18T09:54:19.065Z,98261.30
2023-01-18T09:55:19.073Z,98266.75
2023-01-18T09:56:19.066Z,98269.77
2023-01-18T09:57:21.063Z,98272.48
2023-01-18T09:58:19.067Z,98280.67
2023-01-18T09:59:21.068Z,98280.10
2023-01-18T10:00:18.067Z,98278.02
2023-01-18T10:01:18.154Z,98280.65
2023-01-18T10:02:20.100Z,98281.53
2023-01-18T10:03:18.059Z,98285.17
2023-01-18T10:04:19.061Z,98288.00
2023-01-18T10:05:17.081Z,98294.00
2023-01-18T10:06:19.066Z,98287.52
2023-01-18T10:07:14.060Z,98294.34
2023-01-18T10:08:21.063Z,98295.75
2023-01-18T10:09:18.093Z,98299.06
2023-01-18T10:10:15.068Z,98298.47
2023-01-18T10:11:16.057Z,98303.23
2023-01-18T10:12:17.067Z,98301.20
2023-01-18T10:13:19.068Z,98309.25
2023-01-18T10:14:17.059Z,98309.17
2023-01-18T10:15:18.062Z,98305.68
2023-01-18T10:16:12.129Z,98302.94
2023-01-18T10:17:19.075Z,98302.61
2023-01-18T10:18:11.060Z,98313.21
2023-01-18T10:19:18.063Z,98314.26
2023-01-18T10:20:20.063Z,98319.09
2023-01-18T10:21:15.065Z,98322.02
2023-01-18T10:22:21.057Z,98326.56
2023-01-18T10:23:22.072Z,98327.23
2023-01-18T10:24:19.065Z,98328.01
2023-01-18T10:25:15.083Z,98324.80
2023-01-18T10:26:20.060Z,98327.18
2023-01-18T10:27:22.059Z,98337.05
2023-01-18T10:28:21.061Z,98332.74
2023-01-18T10:29:19.063Z,98334.70
2023-01-18T10:30:19.074Z,98341.91
2023-01-18T10:31:19.135Z,98338.90
2023-01-18T10:32:14.081Z,98339.68
2023-01-18T10:33:19.063Z,98342.05
2023-01-18T10:34:20.085Z,98347.07
2023-01-18T10:35:19.064Z,98345.07
2023-01-18T10:36:18.068Z,98342.46
2023-01-18T10:37:21.062Z,98343.29
2023-01-18T10:38:14.068Z,98345.61
2023-01-18T10:39:19.060Z,98343.73
2023-01-18T10:40:11.066Z,98342.18
2023-01-18T10:41:19.083Z,98345.35
2023-01-18T10:42:21.070Z,98343.15
2023-01-18T10:43:15.082Z,98345.74
2023-01-18T10:44:11.070Z,98346.93
2023-01-18T10:45:18.072Z,98348.82
2023-01-18T10:46:17.071Z,98347.46
2023-01-18T10:47:11.063Z,98354.18
2023-01-18T10:48:21.068Z,98353.00
2023-01-18T10:49:20.063Z,98360.02
2023-01-18T10:50:21.069Z,98359.80
2023-01-18T10:51:15.064Z,98363.89
2023-01-18T10:52:18.070Z,98371.61
2023-01-18T10:53:19.069Z,98366.80
2023-01-18T10:54:19.074Z,98368.68
2023-01-18T10:55:19.065Z,98365.45
2023-01-18T10:56:17.079Z,98366.04
2023-01-18T10:57:19.065Z,98367.22
2023-01-18T10:58:14.063Z,98368.40
2023-01-18T10:59:19.065Z,98373.97
2023-01-18T11:00:22.139Z,98373.05
2023-01-18T11:01:18.181Z,98373.75
2023-01-18T11:02:20.112Z,98377.69
2023-01-18T11:03:15.077Z,98381.85
2023-01-18T11:04:20.069Z,98380.84
2023-01-18T11:05:19.060Z,98379.27
2023-01-18T11:06:11.069Z,98374.36
2023-01-18T11:07:11.064Z,98375.51
2023-01-18T11:08:19.071Z,98379.69
2023-01-18T11:09:19.063Z,98379.59
2023-01-18T11:10:21.100Z,98381.49
2023-01-18T11:11:18.064Z,98381.60
2023-01-18T11:12:25.066Z,98380.30
2023-01-18T11:13:19.060Z,98382.51
2023-01-18T11:14:19.065Z,98378.99
2023-01-18T11:15:19.071Z,98376.45
2023-01-18T11:16:18.138Z,98376.68
2023-01-18T11:17:14.060Z,98375.41
2023-01-18T11:18:11.066Z,98376.54
2023-01-18T11:19:17.082Z,98377.04
2023-01-18T11:20:19.065Z,98376.79
2023-01-18T11:21:14.059Z,98376.25
2023-01-18T11:22:14.067Z,98378.04
2023-01-18T11:23:23.074Z,98382.70
2023-01-18T11:24:15.060Z,98386.59
2023-01-18T11:25:17.066Z,98385.19
2023-01-18T11:26:15.077Z,98383.51
2023-01-18T11:27:16.067Z,98387.56
2023-01-18T11:28:19.064Z,98385.64
2023-01-18T11:29:15.058Z,98384.44
2023-01-18T11:30:19.065Z,98381.88
2023-01-18T11:31:19.342Z,98380.57
2023-01-18T11:32:19.065Z,98380.92
2023-01-18T11:33:18.066Z,98384.44
2023-01-18T11:34:19.067Z,98381.41
2023-01-18T11:35:11.077Z,98383.91
2023-01-18T11:36:11.068Z,98390.94
2023-01-18T11:37:19.063Z,98398.41
2023-01-18T11:38:17.073Z,98398.36
2023-01-18T11:39:19.075Z,98396.91
2023-01-18T11:40:21.078Z,98398.10
2023-01-18T11:41:19.073Z,98400.38
2023-01-18T11:42:19.103Z,98398.32
2023-01-18T11:43:16.077Z,98399.73
2023-01-18T11:44:21.067Z,98397.95